Time;durP1;ratioP1;P1;durP2;ratioP2;P2;SDS_P1;SDS_P2;PMS_P1;PMS_P2;Temp;Humidity;BMP_temperature;BMP_pressure;BME280_temperature;BME280_humidity;BME280_pressure;Samples;Min_cycle;Max_cycle;Signal;HPM_P1;HPM_P2
2021/12/09 00:00:23;;;;;;;;;;;3.60;1.00;;;;;;5044229;28;20008;-84
2021/12/09 00:02:48;;;;;;;;;;;3.70;99.90;;;;;;5065229;28;20443;-84
2021/12/09 00:05:15;;;;;;;;;;;3.60;99.90;;;;;;5070597;28;19908;-84
2021/12/09 00:07:42;;;;;;;;;;;3.60;99.90;;;;;;5059769;28;20063;-84
2021/12/09 00:10:09;;;;;;;;;;;3.60;99.90;;;;;;5070359;28;20200;-83
2021/12/09 00:12:34;;;;;;;;;;;3.50;99.90;;;;;;5058196;28;19935;-84
2021/12/09 00:15:00;;;;;;;;;;;3.50;1.00;;;;;;5062667;28;20328;-84
2021/12/09 00:17:26;;;;;;;;;;;3.50;1.00;;;;;;5063361;28;19912;-83
2021/12/09 00:19:51;;;;;;;;;;;3.50;1.00;;;;;;5062301;28;19916;-84
2021/12/09 00:22:17;;;;;;;;;;;3.50;1.00;;;;;;5074793;28;19912;-84
2021/12/09 00:24:42;;;;;;;;;;;3.50;1.00;;;;;;5050593;28;20368;-84
2021/12/09 00:27:08;;;;;;;;;;;3.50;1.00;;;;;;5071645;28;19920;-84
2021/12/09 00:29:34;;;;;;;;;;;3.40;1.00;;;;;;5077411;28;19984;-83
2021/12/09 00:31:59;;;;;;;;;;;3.40;1.00;;;;;;5061035;28;19962;-84
2021/12/09 00:34:31;;;;;;;;;;;3.40;1.00;;;;;;5056082;28;19917;-84
2021/12/09 00:37:02;;;;;;;;;;;3.40;1.00;;;;;;5056348;28;19913;-84
2021/12/09 00:39:27;;;;;;;;;;;3.40;7.80;;;;;;5074312;28;19924;-84
2021/12/09 00:41:53;;;;;;;;;;;3.30;1.00;;;;;;5082599;28;19913;-84
2021/12/09 00:44:18;;;;;;;;;;;3.30;1.00;;;;;;5069235;28;19965;-84
2021/12/09 00:46:44;;;;;;;;;;;3.30;1.00;;;;;;5083827;28;20028;-84
2021/12/09 00:49:09;;;;;;;;;;;3.30;3.60;;;;;;5072749;28;20297;-84
2021/12/09 00:51:35;;;;;;;;;;;3.20;41.80;;;;;;5051914;28;19913;-84
2021/12/09 00:54:00;;;;;;;;;;;3.20;50.80;;;;;;5037795;28;19913;-84
2021/12/09 00:56:26;;;;;;;;;;;3.20;45.70;;;;;;5049756;28;20007;-84
2021/12/09 00:58:53;;;;;;;;;;;3.20;55.30;;;;;;5067260;28;19917;-84
2021/12/09 01:01:19;;;;;;;;;;;3.10;57.40;;;;;;5067418;28;19917;-84
2021/12/09 01:03:44;;;;;;;;;;;3.10;64.60;;;;;;5068826;28;19920;-84
2021/12/09 01:06:10;;;;;;;;;;;3.10;64.60;;;;;;5078230;28;20380;-84
2021/12/09 01:08:37;;;;;;;;;;;3.10;99.90;;;;;;5057883;28;19913;-84
2021/12/09 01:11:03;;;;;;;;;;;3.00;99.90;;;;;;5073270;28;19908;-84
2021/12/09 01:13:28;;;;;;;;;;;3.00;99.90;;;;;;5057852;28;19917;-83
2021/12/09 01:15:54;;;;;;;;;;;3.00;99.90;;;;;;5068237;28;19916;-84
2021/12/09 01:18:19;;;;;;;;;;;3.00;99.90;;;;;;5067074;28;20011;-84
2021/12/09 01:20:45;;;;;;;;;;;3.10;99.90;;;;;;5068942;28;20391;-84
2021/12/09 01:23:11;;;;;;;;;;;3.10;99.90;;;;;;5069250;28;19913;-84
2021/12/09 01:25:37;;;;;;;;;;;3.10;99.90;;;;;;5048192;28;19913;-84
2021/12/09 01:28:04;;;;;;;;;;;3.20;99.90;;;;;;5056897;28;19913;-84
2021/12/09 01:30:30;;;;;;;;;;;3.20;99.90;;;;;;5075142;28;19985;-84
2021/12/09 01:32:56;;;;;;;;;;;3.20;99.90;;;;;;5088580;28;20379;-84
2021/12/09 01:35:27;;;;;;;;;;;3.30;99.90;;;;;;5074802;28;19916;-83
2021/12/09 01:37:56;;;;;;;;;;;3.30;99.90;;;;;;5044123;28;19913;-83
2021/12/09 01:40:22;;;;;;;;;;;3.30;99.90;;;;;;5055778;28;19925;-83
2021/12/09 01:42:48;;;;;;;;;;;3.30;99.90;;;;;;5060377;28;19913;-84
2021/12/09 01:45:14;;;;;;;;;;;3.30;99.90;;;;;;5043336;28;19915;-84
2021/12/09 01:47:40;;;;;;;;;;;3.40;99.90;;;;;;5068569;28;19912;-84
2021/12/09 01:50:05;;;;;;;;;;;3.40;99.90;;;;;;5043873;28;19963;-84
2021/12/09 01:52:31;;;;;;;;;;;3.40;99.90;;;;;;5068712;28;19983;-84
2021/12/09 01:54:56;;;;;;;;;;;3.40;99.90;;;;;;5073275;28;19909;-84
2021/12/09 01:57:22;;;;;;;;;;;3.40;99.90;;;;;;5063379;28;20015;-84
2021/12/09 01:59:48;;;;;;;;;;;3.40;99.90;;;;;;5050519;28;19911;-84
2021/12/09 02:02:14;;;;;;;;;;;3.30;99.90;;;;;;5058024;28;20367;-84
2021/12/09 02:04:39;;;;;;;;;;;3.30;99.90;;;;;;5069851;28;19968;-84
2021/12/09 02:07:05;;;;;;;;;;;3.20;99.90;;;;;;5076967;28;19924;-84
2021/12/09 02:09:30;;;;;;;;;;;3.20;99.90;;;;;;5071755;28;19964;-84
2021/12/09 02:11:56;;;;;;;;;;;3.20;99.90;;;;;;5069341;28;19913;-84
2021/12/09 02:14:21;;;;;;;;;;;3.20;99.90;;;;;;5069517;28;19927;-83
2021/12/09 02:16:47;;;;;;;;;;;3.10;99.90;;;;;;5050836;28;19913;-84
2021/12/09 02:19:14;;;;;;;;;;;3.10;99.90;;;;;;5066167;28;19945;-84
2021/12/09 02:21:40;;;;;;;;;;;3.10;99.90;;;;;;5061796;28;19913;-84
2021/12/09 02:24:07;;;;;;;;;;;3.00;99.90;;;;;;5067106;28;19920;-84
2021/12/09 02:26:40;;;;;;;;;;;3.00;99.90;;;;;;5076498;28;20012;-84
2021/12/09 02:29:07;;;;;;;;;;;3.00;99.90;;;;;;5056205;28;20382;-84
2021/12/09 02:31:32;;;;;;;;;;;2.90;99.90;;;;;;5066392;28;20373;-83
2021/12/09 02:33:58;;;;;;;;;;;2.90;99.90;;;;;;5031603;28;19975;-84
2021/12/09 02:36:24;;;;;;;;;;;2.90;99.90;;;;;;5068300;28;20369;-83
2021/12/09 02:38:50;;;;;;;;;;;2.90;99.90;;;;;;5055977;28;19920;-84
2021/12/09 02:41:18;;;;;;;;;;;2.80;99.90;;;;;;5037042;28;20003;-84
2021/12/09 02:43:45;;;;;;;;;;;2.80;99.90;;;;;;5062331;28;19928;-84
2021/12/09 02:46:10;;;;;;;;;;;2.80;99.90;;;;;;5070388;28;20325;-84
2021/12/09 02:48:36;;;;;;;;;;;2.80;99.90;;;;;;5065113;28;20001;-84
2021/12/09 02:51:03;;;;;;;;;;;2.80;99.90;;;;;;5051979;28;19913;-84
2021/12/09 02:53:29;;;;;;;;;;;2.90;99.90;;;;;;5066384;28;19931;-84
2021/12/09 02:55:54;;;;;;;;;;;2.90;1.00;;;;;;5069944;28;20004;-83
2021/12/09 02:58:20;;;;;;;;;;;3.00;1.00;;;;;;5059187;28;19944;-84
2021/12/09 03:00:58;;;;;;;;;;;3.00;1.00;;;;;;5074272;28;19912;-84
2021/12/09 03:03:24;;;;;;;;;;;3.00;1.00;;;;;;5062481;28;19912;-84
2021/12/09 03:05:56;;;;;;;;;;;3.10;1.00;;;;;;5052059;28;19932;-84
2021/12/09 03:08:33;;;;;;;;;;;3.10;99.90;;;;;;5055820;28;19913;-84
2021/12/09 03:11:06;;;;;;;;;;;3.10;99.90;;;;;;5046358;28;19979;-84
2021/12/09 03:13:32;;;;;;;;;;;3.10;99.90;;;;;;5067248;28;19913;-84
2021/12/09 03:15:58;;;;;;;;;;;3.10;99.90;;;;;;5074530;28;19913;-84
2021/12/09 03:18:23;;;;;;;;;;;3.10;99.90;;;;;;5075996;28;19909;-84
2021/12/09 03:20:49;;;;;;;;;;;3.10;99.90;;;;;;5055155;28;20397;-84
2021/12/09 03:23:14;;;;;;;;;;;3.10;99.90;;;;;;5065550;28;19913;-84
2021/12/09 03:25:41;;;;;;;;;;;3.00;99.90;;;;;;5062284;28;20351;-84
2021/12/09 03:28:06;;;;;;;;;;;3.00;99.90;;;;;;5071525;28;19912;-84
2021/12/09 03:30:31;;;;;;;;;;;3.00;99.90;;;;;;5064337;28;20045;-84
2021/12/09 03:32:57;;;;;;;;;;;2.90;99.90;;;;;;5068449;28;20284;-84
2021/12/09 03:35:22;;;;;;;;;;;2.90;99.90;;;;;;5083634;28;19969;-84
2021/12/09 03:37:49;;;;;;;;;;;2.90;99.90;;;;;;5070477;28;19912;-84
2021/12/09 03:40:15;;;;;;;;;;;2.80;99.90;;;;;;5053393;28;19984;-84
2021/12/09 03:42:40;;;;;;;;;;;2.80;99.90;;;;;;5065062;28;19935;-84
2021/12/09 03:45:06;;;;;;;;;;;2.80;99.90;;;;;;5062351;28;19991;-84
2021/12/09 03:47:32;;;;;;;;;;;2.80;99.90;;;;;;5061104;28;19912;-84
2021/12/09 03:49:58;;;;;;;;;;;2.70;99.90;;;;;;5064415;28;19908;-84
2021/12/09 03:52:26;;;;;;;;;;;2.70;99.90;;;;;;5060944;28;19935;-84
2021/12/09 03:54:52;;;;;;;;;;;2.70;99.90;;;;;;5066862;28;19916;-85
2021/12/09 03:57:18;;;;;;;;;;;2.60;99.90;;;;;;5053211;28;20003;-84
2021/12/09 03:59:44;;;;;;;;;;;2.60;99.90;;;;;;5036514;28;19959;-84
2021/12/09 04:02:10;;;;;;;;;;;2.60;99.90;;;;;;5051972;28;19916;-84
2021/12/09 04:04:35;;;;;;;;;;;2.60;99.90;;;;;;5040356;28;19928;-84
2021/12/09 04:07:01;;;;;;;;;;;2.50;99.90;;;;;;5054566;28;19917;-84
2021/12/09 04:09:26;;;;;;;;;;;2.50;99.90;;;;;;5068122;28;19913;-84
2021/12/09 04:11:52;;;;;;;;;;;2.50;99.90;;;;;;5057004;28;19939;-84
2021/12/09 04:14:19;;;;;;;;;;;2.50;99.90;;;;;;5050228;28;19913;-84
2021/12/09 04:16:45;;;;;;;;;;;2.40;99.90;;;;;;5051853;28;19917;-84
2021/12/09 04:19:11;;;;;;;;;;;2.40;99.90;;;;;;5069116;28;19912;-84
2021/12/09 04:21:37;;;;;;;;;;;2.40;99.90;;;;;;5057665;28;20397;-84
2021/12/09 04:24:07;;;;;;;;;;;2.40;99.90;;;;;;5070478;28;19912;-84
2021/12/09 04:26:40;;;;;;;;;;;2.40;99.90;;;;;;5047472;28;19909;-84
2021/12/09 04:29:06;;;;;;;;;;;2.30;99.90;;;;;;5059650;28;19952;-85
2021/12/09 04:31:32;;;;;;;;;;;2.40;99.90;;;;;;5043622;28;19913;-84
2021/12/09 04:33:58;;;;;;;;;;;2.30;99.90;;;;;;5048960;28;19909;-84
2021/12/09 04:36:25;;;;;;;;;;;2.30;99.90;;;;;;5063215;28;19919;-85
2021/12/09 04:38:52;;;;;;;;;;;2.30;99.90;;;;;;5071466;28;20268;-84
2021/12/09 04:41:18;;;;;;;;;;;2.20;99.90;;;;;;5069197;28;19916;-84
2021/12/09 04:43:44;;;;;;;;;;;2.20;99.90;;;;;;5071693;28;19931;-84
2021/12/09 04:46:10;;;;;;;;;;;2.20;99.90;;;;;;5058887;28;19977;-84
2021/12/09 04:48:36;;;;;;;;;;;2.20;99.90;;;;;;5065214;28;20436;-84
2021/12/09 04:51:02;;;;;;;;;;;2.20;1.00;;;;;;5044105;28;20381;-84
2021/12/09 04:53:27;;;;;;;;;;;2.20;1.00;;;;;;5065898;28;19921;-84
2021/12/09 04:55:53;;;;;;;;;;;2.20;1.00;;;;;;5069222;28;19920;-84
2021/12/09 04:58:18;;;;;;;;;;;2.20;1.00;;;;;;5074520;28;19931;-84
2021/12/09 05:00:44;;;;;;;;;;;2.20;1.00;;;;;;5076043;28;19920;-84
2021/12/09 05:03:12;;;;;;;;;;;2.20;1.00;;;;;;5058741;28;20369;-84
2021/12/09 05:05:39;;;;;;;;;;;2.20;1.00;;;;;;5066733;28;19919;-84
2021/12/09 05:08:07;;;;;;;;;;;2.20;1.00;;;;;;5058639;28;19909;-85
2021/12/09 05:10:49;;;;;;;;;;;2.20;1.00;;;;;;5045357;28;19920;-85
2021/12/09 05:13:15;;;;;;;;;;;2.20;1.00;;;;;;5084134;28;19908;-84
2021/12/09 05:15:40;;;;;;;;;;;2.20;1.00;;;;;;5068644;28;19939;-84
2021/12/09 05:18:06;;;;;;;;;;;2.10;1.00;;;;;;5073659;28;19909;-85
2021/12/09 05:20:31;;;;;;;;;;;2.10;1.00;;;;;;5053345;28;20400;-84
2021/12/09 05:22:57;;;;;;;;;;;2.10;1.00;;;;;;5071957;28;19908;-85
2021/12/09 05:25:22;;;;;;;;;;;2.00;1.00;;;;;;5068982;28;20503;-84
2021/12/09 05:27:49;;;;;;;;;;;2.00;1.00;;;;;;5068041;28;19917;-85
2021/12/09 05:30:14;;;;;;;;;;;1.90;1.00;;;;;;5070000;28;19947;-84
2021/12/09 05:32:40;;;;;;;;;;;1.80;1.00;;;;;;5073894;28;19913;-84
2021/12/09 05:35:06;;;;;;;;;;;1.90;1.00;;;;;;5068608;28;19935;-84
2021/12/09 05:37:32;;;;;;;;;;;1.80;1.00;;;;;;5047809;28;19912;-84
2021/12/09 05:39:59;;;;;;;;;;;1.80;1.00;;;;;;5053303;28;19988;-84
2021/12/09 05:42:25;;;;;;;;;;;1.80;1.00;;;;;;5062717;28;19912;-84
2021/12/09 05:44:50;;;;;;;;;;;1.80;1.00;;;;;;5032802;28;19991;-84
2021/12/09 05:47:16;;;;;;;;;;;1.90;1.00;;;;;;5063958;28;19919;-84
2021/12/09 05:49:43;;;;;;;;;;;1.90;1.00;;;;;;5044990;28;19966;-84
2021/12/09 05:52:09;;;;;;;;;;;1.90;1.00;;;;;;5070365;28;19912;-84
2021/12/09 05:54:35;;;;;;;;;;;1.90;1.00;;;;;;5051260;28;19924;-84
2021/12/09 05:57:00;;;;;;;;;;;1.90;1.00;;;;;;5057372;28;19913;-85
2021/12/09 05:59:26;;;;;;;;;;;2.00;1.00;;;;;;5071449;28;20380;-84
2021/12/09 06:01:52;;;;;;;;;;;2.00;1.00;;;;;;5060268;28;19943;-84
2021/12/09 06:04:17;;;;;;;;;;;2.00;1.00;;;;;;5062469;28;20499;-84
2021/12/09 06:06:43;;;;;;;;;;;2.00;1.00;;;;;;5065144;28;20360;-84
2021/12/09 06:09:09;;;;;;;;;;;2.00;1.00;;;;;;5059617;28;19918;-84
2021/12/09 06:11:35;;;;;;;;;;;2.10;1.00;;;;;;5044137;28;20403;-84
2021/12/09 06:14:01;;;;;;;;;;;2.10;1.00;;;;;;5050244;28;19921;-84
2021/12/09 06:16:27;;;;;;;;;;;2.10;1.00;;;;;;5052066;28;19946;-84
2021/12/09 06:18:54;;;;;;;;;;;2.10;1.00;;;;;;5032722;28;20554;-84
2021/12/09 06:21:22;;;;;;;;;;;2.10;1.00;;;;;;5044610;28;19944;-84
2021/12/09 06:23:48;;;;;;;;;;;2.10;1.00;;;;;;5056188;28;21575;-84
2021/12/09 06:26:13;;;;;;;;;;;2.10;1.00;;;;;;5052871;28;19934;-84
2021/12/09 06:28:39;;;;;;;;;;;2.10;1.00;;;;;;5047969;28;20435;-84
2021/12/09 06:31:05;;;;;;;;;;;2.10;1.00;;;;;;5030598;28;19917;-84
2021/12/09 06:33:30;;;;;;;;;;;2.10;1.00;;;;;;5033169;28;20416;-85
2021/12/09 06:35:56;;;;;;;;;;;2.10;1.00;;;;;;5028389;28;19913;-84
2021/12/09 06:38:22;;;;;;;;;;;2.10;1.00;;;;;;5032679;28;19967;-84
2021/12/09 06:40:47;;;;;;;;;;;2.10;1.00;;;;;;5028368;28;19917;-86
2021/12/09 06:43:13;;;;;;;;;;;2.10;1.00;;;;;;5036121;28;20377;-84
2021/12/09 06:45:40;;;;;;;;;;;2.10;1.00;;;;;;5039981;28;19928;-85
2021/12/09 06:48:05;;;;;;;;;;;2.10;1.00;;;;;;5052607;28;19924;-85
2021/12/09 06:50:31;;;;;;;;;;;2.10;1.00;;;;;;5050781;28;20277;-85
2021/12/09 06:52:56;;;;;;;;;;;2.10;1.00;;;;;;5055685;28;19927;-85
2021/12/09 06:55:22;;;;;;;;;;;2.10;1.00;;;;;;5039375;28;19921;-87
2021/12/09 06:57:48;;;;;;;;;;;2.10;1.00;;;;;;5059340;28;19928;-86
2021/12/09 07:00:16;;;;;;;;;;;2.20;1.00;;;;;;5041959;28;19917;-87
2021/12/09 07:02:44;;;;;;;;;;;2.30;1.00;;;;;;5055397;28;19913;-87
2021/12/09 07:05:10;;;;;;;;;;;2.40;1.00;;;;;;5050905;28;19913;-85
2021/12/09 07:07:36;;;;;;;;;;;2.50;1.00;;;;;;5060940;28;19912;-87
2021/12/09 07:10:02;;;;;;;;;;;2.50;1.00;;;;;;5036213;28;19920;-87
2021/12/09 07:12:27;;;;;;;;;;;2.60;99.90;;;;;;5038631;28;19935;-87
2021/12/09 07:14:53;;;;;;;;;;;2.60;99.90;;;;;;5044380;28;19912;-86
2021/12/09 07:17:20;;;;;;;;;;;2.60;99.90;;;;;;5050050;28;19920;-87
2021/12/09 07:19:45;;;;;;;;;;;2.60;99.90;;;;;;5054335;28;19912;-87
2021/12/09 07:22:11;;;;;;;;;;;2.60;99.90;;;;;;5047951;28;20296;-86
2021/12/09 07:24:36;;;;;;;;;;;2.60;99.90;;;;;;5046144;28;19962;-86
2021/12/09 07:27:02;;;;;;;;;;;2.60;99.90;;;;;;5051352;28;19913;-86
2021/12/09 07:29:28;;;;;;;;;;;2.60;99.90;;;;;;5042937;28;19920;-86
2021/12/09 07:31:53;;;;;;;;;;;2.60;99.90;;;;;;5042852;28;19913;-86
2021/12/09 07:34:19;;;;;;;;;;;2.60;99.90;;;;;;5038901;28;19956;-87
2021/12/09 07:36:45;;;;;;;;;;;2.60;99.90;;;;;;5027901;28;19913;-87
2021/12/09 07:39:10;;;;;;;;;;;2.70;99.90;;;;;;5031360;28;19921;-86
2021/12/09 07:41:36;;;;;;;;;;;2.70;99.90;;;;;;5050806;28;19946;-86
2021/12/09 07:44:02;;;;;;;;;;;2.80;99.90;;;;;;5039657;28;20369;-86
2021/12/09 07:46:29;;;;;;;;;;;2.90;99.90;;;;;;5021897;28;20280;-86
2021/12/09 07:48:54;;;;;;;;;;;3.00;99.90;;;;;;5048483;28;19921;-86
2021/12/09 07:51:20;;;;;;;;;;;3.00;99.90;;;;;;5044351;28;19916;-86
2021/12/09 07:53:45;;;;;;;;;;;3.10;99.90;;;;;;5031650;28;19920;-86
2021/12/09 07:56:10;;;;;;;;;;;3.20;99.90;;;;;;5025114;28;19921;-86
2021/12/09 07:58:36;;;;;;;;;;;3.40;99.90;;;;;;5045373;28;20373;-86
2021/12/09 08:01:02;;;;;;;;;;;3.50;58.50;;;;;;5050414;28;19916;-86
2021/12/09 08:03:27;;;;;;;;;;;3.60;1.00;;;;;;5029546;28;19948;-85
2021/12/09 08:05:53;;;;;;;;;;;3.70;1.00;;;;;;5047919;28;20361;-87
2021/12/09 08:08:18;;;;;;;;;;;3.80;1.00;;;;;;5049113;28;19959;-87
2021/12/09 08:10:44;;;;;;;;;;;3.90;1.00;;;;;;5054538;28;19917;-87
2021/12/09 08:13:12;;;;;;;;;;;4.10;1.00;;;;;;5044495;28;19913;-86
2021/12/09 08:15:39;;;;;;;;;;;4.40;99.90;;;;;;5024049;28;19913;-87
2021/12/09 08:20:48;;;;;;;;;;;6.10;99.90;;;;;;5048524;28;19947;-86
2021/12/09 08:23:13;;;;;;;;;;;7.30;99.90;;;;;;5025556;28;19982;-87
2021/12/09 08:25:40;;;;;;;;;;;8.30;99.90;;;;;;5047104;28;20353;-86
2021/12/09 08:28:05;;;;;;;;;;;9.10;1.00;;;;;;5055088;28;19986;-87
2021/12/09 08:30:31;;;;;;;;;;;9.10;1.00;;;;;;5020706;28;20003;-87
2021/12/09 08:32:57;;;;;;;;;;;8.70;1.00;;;;;;5058251;28;20390;-86
2021/12/09 08:35:22;;;;;;;;;;;8.30;1.00;;;;;;5061062;28;19912;-86
2021/12/09 08:37:48;;;;;;;;;;;8.00;1.00;;;;;;5056935;28;20055;-86
2021/12/09 08:40:15;;;;;;;;;;;7.70;1.00;;;;;;5041827;28;20559;-86
2021/12/09 08:42:40;;;;;;;;;;;7.70;1.00;;;;;;5047829;28;19970;-85
2021/12/09 08:45:09;;;;;;;;;;;7.60;1.00;;;;;;5042292;28;19951;-84
2021/12/09 08:47:34;;;;;;;;;;;7.60;1.00;;;;;;5026909;28;19916;-84
2021/12/09 08:50:00;;;;;;;;;;;7.40;1.00;;;;;;5024010;28;20012;-84
2021/12/09 08:52:25;;;;;;;;;;;7.50;1.00;;;;;;5045221;28;19908;-86
2021/12/09 08:54:51;;;;;;;;;;;7.50;1.00;;;;;;5046935;28;19916;-86
2021/12/09 08:57:16;;;;;;;;;;;7.50;1.00;;;;;;5052186;28;19913;-87
2021/12/09 08:59:42;;;;;;;;;;;7.50;1.00;;;;;;5052125;28;19959;-87
2021/12/09 09:02:08;;;;;;;;;;;7.50;1.00;;;;;;5048832;28;20008;-87
2021/12/09 09:04:33;;;;;;;;;;;7.40;1.00;;;;;;5014200;28;19917;-87
2021/12/09 09:07:00;;;;;;;;;;;7.40;1.00;;;;;;5031350;28;19909;-86
2021/12/09 09:09:27;;;;;;;;;;;7.30;1.00;;;;;;5024575;28;19920;-87
2021/12/09 09:11:53;;;;;;;;;;;7.20;1.00;;;;;;5051671;28;19931;-87
2021/12/09 09:14:19;;;;;;;;;;;7.10;1.00;;;;;;5031961;28;19920;-86
2021/12/09 09:16:44;;;;;;;;;;;7.10;1.00;;;;;;5037757;28;19909;-87
2021/12/09 09:19:10;;;;;;;;;;;7.20;1.00;;;;;;5039220;28;19975;-86
2021/12/09 09:21:36;;;;;;;;;;;7.20;1.00;;;;;;5037063;28;19921;-86
2021/12/09 09:24:03;;;;;;;;;;;7.10;1.00;;;;;;5037355;28;19917;-85
2021/12/09 09:26:29;;;;;;;;;;;7.00;1.00;;;;;;5023877;28;19984;-86
2021/12/09 09:28:55;;;;;;;;;;;7.00;1.00;;;;;;5054344;28;19958;-86
2021/12/09 09:31:24;;;;;;;;;;;6.80;1.00;;;;;;5053123;28;20319;-86
2021/12/09 09:33:49;;;;;;;;;;;6.80;1.00;;;;;;5035199;28;19913;-86
2021/12/09 09:36:15;;;;;;;;;;;6.80;1.00;;;;;;5035585;28;19932;-86
2021/12/09 09:38:40;;;;;;;;;;;6.80;1.00;;;;;;5030075;28;19927;-86
2021/12/09 09:41:09;;;;;;;;;;;6.80;1.00;;;;;;5036650;28;20515;-86
2021/12/09 09:46:12;;;;;;;;;;;7.30;1.00;;;;;;5059509;28;20347;-85
2021/12/09 09:48:39;;;;;;;;;;;7.70;1.00;;;;;;5035540;28;20295;-86
2021/12/09 09:51:05;;;;;;;;;;;7.90;1.00;;;;;;5016385;28;19971;-85
2021/12/09 09:53:31;;;;;;;;;;;8.00;1.00;;;;;;5020867;28;19909;-85
2021/12/09 09:55:57;;;;;;;;;;;8.10;1.00;;;;;;5042734;28;19913;-86
2021/12/09 09:58:25;;;;;;;;;;;7.90;1.00;;;;;;5060565;28;19920;-85
2021/12/09 10:00:50;;;;;;;;;;;7.70;1.00;;;;;;5053160;28;19927;-85
2021/12/09 10:03:17;;;;;;;;;;;7.40;1.00;;;;;;5052514;28;19952;-85
2021/12/09 10:05:47;;;;;;;;;;;7.30;1.00;;;;;;5040793;28;19912;-85
2021/12/09 10:08:14;;;;;;;;;;;7.10;1.00;;;;;;5040702;28;19908;-85
2021/12/09 10:10:40;;;;;;;;;;;7.10;1.00;;;;;;5054566;28;19945;-85
2021/12/09 10:13:07;;;;;;;;;;;7.10;1.00;;;;;;5038133;28;19909;-85
2021/12/09 10:15:50;;;;;;;;;;;7.10;1.00;;;;;;5045686;28;19913;-85
2021/12/09 10:18:31;;;;;;;;;;;7.10;1.00;;;;;;5054024;28;19977;-85
2021/12/09 10:20:56;;;;;;;;;;;7.10;1.00;;;;;;5058873;28;19967;-85
2021/12/09 10:23:22;;;;;;;;;;;7.10;1.00;;;;;;5060916;28;19912;-86
2021/12/09 10:26:07;;;;;;;;;;;7.00;1.00;;;;;;5062102;28;19948;-85
2021/12/09 10:28:34;;;;;;;;;;;6.90;1.00;;;;;;5053848;28;19914;-85
2021/12/09 10:31:11;;;;;;;;;;;6.90;1.00;;;;;;5022191;28;19999;-85
2021/12/09 10:33:58;;;;;;;;;;;6.90;1.00;;;;;;5047759;28;19923;-84
2021/12/09 10:36:40;;;;;;;;;;;6.80;1.00;;;;;;5050297;28;20017;-86
2021/12/09 10:39:13;;;;;;;;;;;6.80;1.00;;;;;;5038771;28;19960;-85
2021/12/09 10:41:38;;;;;;;;;;;6.70;1.00;;;;;;5046999;28;19986;-85
2021/12/09 10:44:04;;;;;;;;;;;6.70;1.00;;;;;;5020803;28;19917;-85
2021/12/09 10:46:55;;;;;;;;;;;6.60;1.00;;;;;;5047689;28;20515;-85
2021/12/09 10:49:22;;;;;;;;;;;6.60;1.00;;;;;;5043651;28;19912;-85
2021/12/09 10:51:58;;;;;;;;;;;6.70;1.00;;;;;;5061145;28;19912;-85
2021/12/09 10:54:34;;;;;;;;;;;6.80;1.00;;;;;;5053107;28;19935;-85
2021/12/09 10:57:18;;;;;;;;;;;6.90;1.00;;;;;;5061835;28;19919;-85
2021/12/09 10:59:44;;;;;;;;;;;7.00;1.00;;;;;;5061556;28;19917;-85
2021/12/09 11:02:09;;;;;;;;;;;7.30;1.00;;;;;;5043913;28;19932;-86
2021/12/09 11:04:35;;;;;;;;;;;7.50;1.00;;;;;;5051374;28;19936;-85
2021/12/09 11:07:17;;;;;;;;;;;7.80;1.00;;;;;;5042282;28;19913;-85
2021/12/09 11:09:43;;;;;;;;;;;7.80;1.00;;;;;;5042880;28;19917;-85
2021/12/09 11:12:24;;;;;;;;;;;7.80;1.00;;;;;;5043392;28;19952;-85
2021/12/09 11:14:59;;;;;;;;;;;7.70;1.00;;;;;;5061526;28;19908;-85
2021/12/09 11:17:38;;;;;;;;;;;7.80;1.00;;;;;;5043018;28;19939;-85
2021/12/09 11:20:04;;;;;;;;;;;7.80;1.00;;;;;;5023343;28;20293;-86
2021/12/09 11:22:31;;;;;;;;;;;8.00;1.00;;;;;;5041783;28;19913;-85
2021/12/09 11:25:01;;;;;;;;;;;8.10;1.00;;;;;;5053886;28;19920;-85
2021/12/09 11:27:28;;;;;;;;;;;8.20;1.00;;;;;;5063538;28;19937;-85
2021/12/09 11:30:03;;;;;;;;;;;8.10;1.00;;;;;;5040822;28;20330;-85
2021/12/09 11:35:17;;;;;;;;;;;7.80;1.00;;;;;;5062973;28;19908;-86
2021/12/09 11:37:49;;;;;;;;;;;7.70;1.00;;;;;;5042186;28;19913;-85
2021/12/09 11:40:20;;;;;;;;;;;7.50;1.00;;;;;;5061536;28;19909;-85
2021/12/09 11:42:50;;;;;;;;;;;7.40;1.00;;;;;;5052628;28;19914;-85
2021/12/09 11:45:18;;;;;;;;;;;7.40;1.00;;;;;;5040283;28;20468;-86
2021/12/09 11:47:44;;;;;;;;;;;7.30;1.00;;;;;;5020478;28;19939;-86
2021/12/09 11:50:11;;;;;;;;;;;7.40;1.00;;;;;;5050038;28;19956;-86
2021/12/09 11:52:38;;;;;;;;;;;7.30;1.00;;;;;;5036443;28;19908;-86
2021/12/09 11:55:05;;;;;;;;;;;7.30;1.00;;;;;;5056281;28;19917;-85
2021/12/09 11:57:39;;;;;;;;;;;7.30;1.00;;;;;;5059591;28;19916;-85
2021/12/09 12:11:50;;;;;;;;;;;7.00;1.00;;;;;;5038287;28;19924;-85
2021/12/09 12:14:30;;;;;;;;;;;7.00;1.00;;;;;;5046157;28;19913;-85
2021/12/09 12:19:51;;;;;;;;;;;7.00;1.00;;;;;;5048942;28;19928;-85
2021/12/09 12:22:45;;;;;;;;;;;6.90;1.00;;;;;;5041301;28;19943;-86
2021/12/09 12:25:33;;;;;;;;;;;6.90;1.00;;;;;;5042235;28;20307;-85
2021/12/09 12:28:18;;;;;;;;;;;6.80;1.00;;;;;;5057427;28;20380;-85
2021/12/09 12:31:07;;;;;;;;;;;6.60;1.00;;;;;;5058287;28;19917;-85
2021/12/09 12:34:09;;;;;;;;;;;6.50;1.00;;;;;;5060949;28;19909;-85
2021/12/09 12:39:46;;;;;;;;;;;6.40;1.00;;;;;;5040510;28;19917;-85
2021/12/09 12:42:19;;;;;;;;;;;6.30;1.00;;;;;;5050347;28;19952;-85
2021/12/09 12:45:03;;;;;;;;;;;6.20;1.00;;;;;;5040849;28;20296;-85
2021/12/09 12:47:37;;;;;;;;;;;6.20;1.00;;;;;;5048859;28;19916;-85
2021/12/09 12:50:09;;;;;;;;;;;6.10;1.00;;;;;;5041397;28;19910;-85
2021/12/09 12:52:35;;;;;;;;;;;6.10;1.00;;;;;;5036419;28;20412;-85
2021/12/09 12:55:12;;;;;;;;;;;6.00;1.00;;;;;;5047321;28;19909;-86
2021/12/09 12:57:47;;;;;;;;;;;6.00;1.00;;;;;;5062525;28;20336;-86
2021/12/09 13:00:18;;;;;;;;;;;5.90;1.00;;;;;;5054785;28;20308;-85
2021/12/09 13:10:43;;;;;;;;;;;6.00;53.00;;;;;;5063444;28;19924;-86
2021/12/09 13:16:00;;;;;;;;;;;5.90;99.90;;;;;;5068158;28;19912;-85
2021/12/09 13:18:54;;;;;;;;;;;5.90;99.90;;;;;;5030179;28;20293;-86
2021/12/09 13:21:43;;;;;;;;;;;5.80;99.90;;;;;;5032579;28;19917;-86
2021/12/09 13:27:06;;;;;;;;;;;5.90;99.90;;;;;;5046306;28;19963;-86
2021/12/09 13:29:42;;;;;;;;;;;6.00;99.90;;;;;;5055822;28;19940;-86
2021/12/09 13:32:38;;;;;;;;;;;6.00;99.90;;;;;;5038451;28;19942;-85
2021/12/09 13:35:10;;;;;;;;;;;6.10;99.90;;;;;;5040497;28;19944;-86
2021/12/09 13:38:40;;;;;;;;;;;6.10;99.90;;;;;;5056949;28;19921;-86
2021/12/09 13:46:12;;;;;;;;;;;6.20;99.90;;;;;;5060812;28;19924;-86
2021/12/09 13:48:46;;;;;;;;;;;6.20;99.90;;;;;;5050464;28;19920;-85
2021/12/09 13:54:23;;;;;;;;;;;6.20;99.90;;;;;;5061009;28;19920;-86
2021/12/09 13:56:48;;;;;;;;;;;6.20;99.90;;;;;;5047119;28;19919;-86
2021/12/09 13:59:17;;;;;;;;;;;6.30;99.90;;;;;;5045655;28;19991;-86
2021/12/09 14:01:43;;;;;;;;;;;6.20;99.90;;;;;;5029055;28;20281;-85
2021/12/09 14:04:09;;;;;;;;;;;6.30;99.90;;;;;;5053426;28;19919;-87
2021/12/09 14:06:34;;;;;;;;;;;6.20;99.90;;;;;;5031495;28;19917;-85
2021/12/09 14:09:00;;;;;;;;;;;6.10;99.90;;;;;;5050603;28;19917;-85
2021/12/09 14:11:33;;;;;;;;;;;6.20;99.90;;;;;;5031994;28;20089;-86
2021/12/09 14:14:04;;;;;;;;;;;6.20;99.90;;;;;;5052559;28;20105;-85
2021/12/09 14:21:36;;;;;;;;;;;6.20;99.90;;;;;;5046430;28;19962;-84
2021/12/09 14:24:02;;;;;;;;;;;6.30;99.90;;;;;;5044258;28;19912;-83
2021/12/09 14:26:28;;;;;;;;;;;6.20;99.90;;;;;;5052840;28;19913;-82
2021/12/09 14:28:57;;;;;;;;;;;6.20;99.90;;;;;;5044710;28;19920;-81
2021/12/09 14:31:22;;;;;;;;;;;6.20;99.90;;;;;;5047310;28;20365;-84
2021/12/09 14:33:48;;;;;;;;;;;6.20;99.90;;;;;;5044574;28;20020;-82
2021/12/09 14:36:13;;;;;;;;;;;6.20;99.90;;;;;;5028946;28;19912;-82
2021/12/09 14:38:39;;;;;;;;;;;6.10;99.90;;;;;;5043413;28;19931;-82
2021/12/09 14:41:24;;;;;;;;;;;6.10;99.90;;;;;;5034467;28;19917;-82
2021/12/09 14:43:50;;;;;;;;;;;6.00;99.90;;;;;;5063001;28;19976;-81
2021/12/09 14:46:26;;;;;;;;;;;6.00;99.90;;;;;;5036183;28;20391;-82
2021/12/09 14:48:52;;;;;;;;;;;6.00;99.90;;;;;;5058486;28;19913;-84
2021/12/09 14:51:22;;;;;;;;;;;5.90;99.90;;;;;;5046333;28;20316;-83
2021/12/09 14:54:03;;;;;;;;;;;5.90;99.90;;;;;;5064915;28;20288;-84
2021/12/09 14:56:31;;;;;;;;;;;5.90;1.00;;;;;;5065698;28;20015;-83
2021/12/09 14:59:17;;;;;;;;;;;5.90;1.00;;;;;;5039087;28;19920;-83
2021/12/09 15:01:43;;;;;;;;;;;5.80;1.00;;;;;;5059784;28;19920;-81
2021/12/09 15:04:16;;;;;;;;;;;5.80;1.00;;;;;;5058406;28;19920;-82
2021/12/09 15:06:50;;;;;;;;;;;5.80;1.00;;;;;;5059953;28;20007;-82
2021/12/09 15:09:17;;;;;;;;;;;5.80;1.00;;;;;;5061585;28;19913;-82
2021/12/09 15:11:47;;;;;;;;;;;5.80;5.80;;;;;;5049004;28;19923;-82
2021/12/09 15:14:18;;;;;;;;;;;5.80;63.10;;;;;;5067807;28;19921;-82
2021/12/09 15:16:43;;;;;;;;;;;5.80;99.90;;;;;;5055920;28;20373;-82
2021/12/09 15:19:27;;;;;;;;;;;5.90;99.90;;;;;;5038935;28;19959;-82
2021/12/09 15:22:02;;;;;;;;;;;5.80;99.90;;;;;;5061315;28;20012;-84
2021/12/09 15:24:28;;;;;;;;;;;5.80;99.90;;;;;;5052654;28;19964;-85
2021/12/09 15:26:54;;;;;;;;;;;5.80;1.00;;;;;;5052874;28;21020;-83
2021/12/09 15:29:21;;;;;;;;;;;5.80;99.90;;;;;;5060272;28;19923;-82
2021/12/09 15:32:07;;;;;;;;;;;5.80;99.90;;;;;;5061781;28;19909;-82
2021/12/09 15:34:40;;;;;;;;;;;5.80;1.00;;;;;;5048880;28;19913;-82